sensor_id;sensor_type;location;lat;lon;timestamp;P1;durP1;ratioP1;P2;durP2;ratioP2
34459;SDS011;20704;51.260;22.558;2023-02-01T00:00:08;16.67;;;8.90;;
34459;SDS011;20704;51.260;22.558;2023-02-01T00:02:31;13.00;;;8.13;;
34459;SDS011;20704;51.260;22.558;2023-02-01T00:04:33;17.43;;;9.07;;
34459;SDS011;20704;51.260;22.558;2023-02-01T00:06:36;14.17;;;8.70;;
34459;SDS011;20704;51.260;22.558;2023-02-01T00:08:38;13.37;;;8.20;;
34459;SDS011;20704;51.260;22.558;2023-02-01T00:10:40;13.50;;;7.90;;
34459;SDS011;20704;51.260;22.558;2023-02-01T00:12:43;12.20;;;6.93;;
34459;SDS011;20704;51.260;22.558;2023-02-01T00:14:46;12.53;;;6.70;;
34459;SDS011;20704;51.260;22.558;2023-02-01T00:16:49;12.40;;;7.57;;
34459;SDS011;20704;51.260;22.558;2023-02-01T00:18:55;11.43;;;7.30;;
34459;SDS011;20704;51.260;22.558;2023-02-01T00:21:15;12.03;;;6.93;;
34459;SDS011;20704;51.260;22.558;2023-02-01T00:23:20;13.40;;;7.10;;
34459;SDS011;20704;51.260;22.558;2023-02-01T00:25:22;11.90;;;7.50;;
34459;SDS011;20704;51.260;22.558;2023-02-01T00:27:24;14.07;;;7.00;;
34459;SDS011;20704;51.260;22.558;2023-02-01T00:29:26;11.17;;;6.33;;
34459;SDS011;20704;51.260;22.558;2023-02-01T00:31:29;9.17;;;5.80;;
34459;SDS011;20704;51.260;22.558;2023-02-01T00:33:32;10.93;;;5.80;;
34459;SDS011;20704;51.260;22.558;2023-02-01T00:35:35;12.90;;;7.47;;
34459;SDS011;20704;51.260;22.558;2023-02-01T00:37:38;10.30;;;6.30;;
34459;SDS011;20704;51.260;22.558;2023-02-01T00:39:40;10.27;;;6.50;;
34459;SDS011;20704;51.260;22.558;2023-02-01T00:41:42;10.17;;;5.73;;
34459;SDS011;20704;51.260;22.558;2023-02-01T00:43:45;10.07;;;6.50;;
34459;SDS011;20704;51.260;22.558;2023-02-01T00:45:48;9.60;;;5.93;;
34459;SDS011;20704;51.260;22.558;2023-02-01T00:47:50;7.73;;;5.67;;
34459;SDS011;20704;51.260;22.558;2023-02-01T00:49:52;12.00;;;6.20;;
34459;SDS011;20704;51.260;22.558;2023-02-01T00:51:55;8.90;;;6.03;;
34459;SDS011;20704;51.260;22.558;2023-02-01T00:53:57;13.90;;;7.40;;
34459;SDS011;20704;51.260;22.558;2023-02-01T00:56:00;9.80;;;6.80;;
34459;SDS011;20704;51.260;22.558;2023-02-01T00:58:02;10.33;;;6.10;;
34459;SDS011;20704;51.260;22.558;2023-02-01T01:00:07;9.73;;;6.17;;
34459;SDS011;20704;51.260;22.558;2023-02-01T01:02:10;10.27;;;6.73;;
34459;SDS011;20704;51.260;22.558;2023-02-01T01:04:16;8.50;;;6.07;;
34459;SDS011;20704;51.260;22.558;2023-02-01T01:06:22;10.40;;;6.10;;
34459;SDS011;20704;51.260;22.558;2023-02-01T01:08:26;10.40;;;6.23;;
34459;SDS011;20704;51.260;22.558;2023-02-01T01:10:28;8.83;;;5.77;;
34459;SDS011;20704;51.260;22.558;2023-02-01T01:12:32;8.33;;;5.80;;
34459;SDS011;20704;51.260;22.558;2023-02-01T01:14:34;10.57;;;6.47;;
34459;SDS011;20704;51.260;22.558;2023-02-01T01:16:36;9.67;;;6.20;;
34459;SDS011;20704;51.260;22.558;2023-02-01T01:18:39;12.00;;;6.13;;
34459;SDS011;20704;51.260;22.558;2023-02-01T01:20:42;9.20;;;5.77;;
34459;SDS011;20704;51.260;22.558;2023-02-01T01:22:44;11.43;;;5.50;;
34459;SDS011;20704;51.260;22.558;2023-02-01T01:24:46;7.43;;;5.67;;
34459;SDS011;20704;51.260;22.558;2023-02-01T01:26:48;10.43;;;6.17;;
34459;SDS011;20704;51.260;22.558;2023-02-01T01:28:51;9.37;;;6.00;;
34459;SDS011;20704;51.260;22.558;2023-02-01T01:30:54;11.17;;;5.93;;
34459;SDS011;20704;51.260;22.558;2023-02-01T01:32:56;10.60;;;5.03;;
34459;SDS011;20704;51.260;22.558;2023-02-01T01:34:58;9.40;;;5.40;;
34459;SDS011;20704;51.260;22.558;2023-02-01T01:37:01;8.80;;;5.23;;
34459;SDS011;20704;51.260;22.558;2023-02-01T01:39:03;7.97;;;5.33;;
34459;SDS011;20704;51.260;22.558;2023-02-01T01:41:06;7.07;;;4.80;;
34459;SDS011;20704;51.260;22.558;2023-02-01T01:43:16;7.73;;;5.13;;
34459;SDS011;20704;51.260;22.558;2023-02-01T01:47:37;9.73;;;4.90;;
34459;SDS011;20704;51.260;22.558;2023-02-01T01:49:44;8.80;;;4.37;;
34459;SDS011;20704;51.260;22.558;2023-02-01T01:53:59;7.27;;;4.03;;
34459;SDS011;20704;51.260;22.558;2023-02-01T01:56:10;6.40;;;3.93;;
34459;SDS011;20704;51.260;22.558;2023-02-01T01:58:16;6.80;;;4.37;;
34459;SDS011;20704;51.260;22.558;2023-02-01T02:00:20;6.70;;;4.23;;
34459;SDS011;20704;51.260;22.558;2023-02-01T02:02:23;6.97;;;4.57;;
34459;SDS011;20704;51.260;22.558;2023-02-01T02:04:26;7.13;;;3.70;;
34459;SDS011;20704;51.260;22.558;2023-02-01T02:08:53;6.40;;;3.83;;
34459;SDS011;20704;51.260;22.558;2023-02-01T02:10:55;7.53;;;4.10;;
34459;SDS011;20704;51.260;22.558;2023-02-01T02:13:00;6.93;;;3.67;;
34459;SDS011;20704;51.260;22.558;2023-02-01T02:15:03;4.20;;;2.87;;
34459;SDS011;20704;51.260;22.558;2023-02-01T02:27:02;5.28;;;3.70;;
34459;SDS011;20704;51.260;22.558;2023-02-01T02:30:01;5.88;;;3.33;;
34459;SDS011;20704;51.260;22.558;2023-02-01T02:38:41;5.83;;;3.20;;
34459;SDS011;20704;51.260;22.558;2023-02-01T02:40:54;6.37;;;3.60;;
34459;SDS011;20704;51.260;22.558;2023-02-01T02:43:21;7.07;;;4.20;;
34459;SDS011;20704;51.260;22.558;2023-02-01T02:45:47;5.63;;;2.73;;
34459;SDS011;20704;51.260;22.558;2023-02-01T02:48:17;5.40;;;2.50;;
34459;SDS011;20704;51.260;22.558;2023-02-01T02:50:27;4.33;;;2.53;;
34459;SDS011;20704;51.260;22.558;2023-02-01T02:52:57;5.43;;;2.83;;
34459;SDS011;20704;51.260;22.558;2023-02-01T02:55:23;5.83;;;3.40;;
34459;SDS011;20704;51.260;22.558;2023-02-01T02:57:37;6.87;;;2.70;;
34459;SDS011;20704;51.260;22.558;2023-02-01T03:00:03;5.33;;;2.87;;
34459;SDS011;20704;51.260;22.558;2023-02-01T03:02:27;3.00;;;2.17;;
34459;SDS011;20704;51.260;22.558;2023-02-01T03:04:52;2.47;;;1.70;;
34459;SDS011;20704;51.260;22.558;2023-02-01T03:07:10;3.38;;;1.90;;
34459;SDS011;20704;51.260;22.558;2023-02-01T03:09:26;4.07;;;2.47;;
34459;SDS011;20704;51.260;22.558;2023-02-01T03:11:33;3.33;;;1.90;;
34459;SDS011;20704;51.260;22.558;2023-02-01T03:13:56;3.17;;;2.07;;
34459;SDS011;20704;51.260;22.558;2023-02-01T03:18:16;8.03;;;3.03;;
34459;SDS011;20704;51.260;22.558;2023-02-01T03:20:28;2.60;;;1.50;;
34459;SDS011;20704;51.260;22.558;2023-02-01T03:22:31;3.10;;;1.40;;
34459;SDS011;20704;51.260;22.558;2023-02-01T03:24:40;2.67;;;1.43;;
34459;SDS011;20704;51.260;22.558;2023-02-01T03:26:48;3.80;;;1.60;;
34459;SDS011;20704;51.260;22.558;2023-02-01T03:31:09;3.87;;;2.03;;
34459;SDS011;20704;51.260;22.558;2023-02-01T03:33:13;3.43;;;1.40;;
34459;SDS011;20704;51.260;22.558;2023-02-01T03:40:34;4.23;;;1.57;;
34459;SDS011;20704;51.260;22.558;2023-02-01T03:42:43;3.07;;;1.40;;
34459;SDS011;20704;51.260;22.558;2023-02-01T03:44:52;2.10;;;1.53;;
34459;SDS011;20704;51.260;22.558;2023-02-01T03:47:06;2.53;;;1.60;;
34459;SDS011;20704;51.260;22.558;2023-02-01T03:49:16;10.30;;;2.13;;
34459;SDS011;20704;51.260;22.558;2023-02-01T03:51:23;5.25;;;1.92;;
34459;SDS011;20704;51.260;22.558;2023-02-01T03:53:26;3.37;;;1.53;;
34459;SDS011;20704;51.260;22.558;2023-02-01T03:55:30;2.30;;;1.60;;
34459;SDS011;20704;51.260;22.558;2023-02-01T03:57:35;5.03;;;1.83;;
34459;SDS011;20704;51.260;22.558;2023-02-01T03:59:42;2.10;;;1.43;;
34459;SDS011;20704;51.260;22.558;2023-02-01T04:01:46;2.20;;;1.40;;
34459;SDS011;20704;51.260;22.558;2023-02-01T04:03:49;3.23;;;1.80;;
34459;SDS011;20704;51.260;22.558;2023-02-01T04:05:53;5.37;;;1.50;;
34459;SDS011;20704;51.260;22.558;2023-02-01T04:07:56;6.33;;;2.13;;
34459;SDS011;20704;51.260;22.558;2023-02-01T04:09:58;6.10;;;1.97;;
34459;SDS011;20704;51.260;22.558;2023-02-01T04:12:01;5.13;;;1.80;;
34459;SDS011;20704;51.260;22.558;2023-02-01T04:14:03;3.20;;;1.90;;
34459;SDS011;20704;51.260;22.558;2023-02-01T04:16:06;6.70;;;2.03;;
34459;SDS011;20704;51.260;22.558;2023-02-01T04:18:08;4.10;;;1.50;;
34459;SDS011;20704;51.260;22.558;2023-02-01T04:20:11;4.67;;;1.53;;
34459;SDS011;20704;51.260;22.558;2023-02-01T04:22:13;5.13;;;1.83;;
34459;SDS011;20704;51.260;22.558;2023-02-01T04:24:14;4.77;;;1.50;;
34459;SDS011;20704;51.260;22.558;2023-02-01T04:26:16;4.17;;;1.43;;
34459;SDS011;20704;51.260;22.558;2023-02-01T04:28:19;5.80;;;2.37;;
34459;SDS011;20704;51.260;22.558;2023-02-01T04:30:21;7.33;;;1.47;;
34459;SDS011;20704;51.260;22.558;2023-02-01T04:32:26;8.57;;;1.60;;
34459;SDS011;20704;51.260;22.558;2023-02-01T04:34:28;4.67;;;1.63;;
34459;SDS011;20704;51.260;22.558;2023-02-01T04:36:30;4.50;;;1.60;;
34459;SDS011;20704;51.260;22.558;2023-02-01T04:38:32;9.43;;;1.73;;
34459;SDS011;20704;51.260;22.558;2023-02-01T04:40:35;6.33;;;1.40;;
34459;SDS011;20704;51.260;22.558;2023-02-01T04:42:39;8.23;;;2.43;;
34459;SDS011;20704;51.260;22.558;2023-02-01T04:44:41;5.67;;;1.80;;
34459;SDS011;20704;51.260;22.558;2023-02-01T04:46:44;4.03;;;1.43;;
34459;SDS011;20704;51.260;22.558;2023-02-01T04:48:48;5.03;;;1.80;;
34459;SDS011;20704;51.260;22.558;2023-02-01T04:50:50;6.23;;;1.80;;
34459;SDS011;20704;51.260;22.558;2023-02-01T04:52:52;7.60;;;1.57;;
34459;SDS011;20704;51.260;22.558;2023-02-01T04:54:55;6.20;;;1.33;;
34459;SDS011;20704;51.260;22.558;2023-02-01T04:57:00;7.93;;;1.10;;
34459;SDS011;20704;51.260;22.558;2023-02-01T04:59:02;7.53;;;1.83;;
34459;SDS011;20704;51.260;22.558;2023-02-01T05:01:06;6.40;;;1.87;;
34459;SDS011;20704;51.260;22.558;2023-02-01T05:03:09;7.83;;;2.20;;
34459;SDS011;20704;51.260;22.558;2023-02-01T05:05:11;13.37;;;2.40;;
34459;SDS011;20704;51.260;22.558;2023-02-01T05:07:13;4.90;;;1.70;;
34459;SDS011;20704;51.260;22.558;2023-02-01T05:09:16;3.27;;;1.33;;
34459;SDS011;20704;51.260;22.558;2023-02-01T05:11:18;6.87;;;1.57;;
34459;SDS011;20704;51.260;22.558;2023-02-01T05:13:39;11.43;;;2.53;;
34459;SDS011;20704;51.260;22.558;2023-02-01T05:15:50;8.10;;;1.70;;
34459;SDS011;20704;51.260;22.558;2023-02-01T05:17:53;6.47;;;2.63;;
34459;SDS011;20704;51.260;22.558;2023-02-01T05:19:55;5.97;;;3.27;;
34459;SDS011;20704;51.260;22.558;2023-02-01T05:21:58;5.47;;;2.53;;
34459;SDS011;20704;51.260;22.558;2023-02-01T05:24:00;10.63;;;1.83;;
34459;SDS011;20704;51.260;22.558;2023-02-01T05:26:11;7.57;;;2.03;;
34459;SDS011;20704;51.260;22.558;2023-02-01T05:28:13;6.77;;;2.30;;
34459;SDS011;20704;51.260;22.558;2023-02-01T05:30:16;5.30;;;1.53;;
34459;SDS011;20704;51.260;22.558;2023-02-01T05:32:18;9.83;;;1.70;;
34459;SDS011;20704;51.260;22.558;2023-02-01T05:34:23;3.97;;;1.57;;
34459;SDS011;20704;51.260;22.558;2023-02-01T05:36:25;9.67;;;2.67;;
34459;SDS011;20704;51.260;22.558;2023-02-01T05:38:28;7.10;;;1.90;;
34459;SDS011;20704;51.260;22.558;2023-02-01T05:40:33;5.77;;;1.80;;
34459;SDS011;20704;51.260;22.558;2023-02-01T05:42:36;6.83;;;2.07;;
34459;SDS011;20704;51.260;22.558;2023-02-01T05:44:38;6.83;;;2.40;;
34459;SDS011;20704;51.260;22.558;2023-02-01T05:46:40;8.17;;;1.67;;
34459;SDS011;20704;51.260;22.558;2023-02-01T05:48:43;8.57;;;3.07;;
34459;SDS011;20704;51.260;22.558;2023-02-01T05:50:45;9.80;;;3.03;;
34459;SDS011;20704;51.260;22.558;2023-02-01T05:52:47;4.40;;;2.47;;
34459;SDS011;20704;51.260;22.558;2023-02-01T05:54:50;7.23;;;1.97;;
34459;SDS011;20704;51.260;22.558;2023-02-01T05:56:54;10.73;;;2.07;;
34459;SDS011;20704;51.260;22.558;2023-02-01T05:58:56;6.83;;;1.97;;
34459;SDS011;20704;51.260;22.558;2023-02-01T06:00:59;10.13;;;1.80;;
34459;SDS011;20704;51.260;22.558;2023-02-01T06:03:04;6.70;;;2.17;;
34459;SDS011;20704;51.260;22.558;2023-02-01T06:05:07;11.23;;;2.70;;
34459;SDS011;20704;51.260;22.558;2023-02-01T06:07:10;10.17;;;2.27;;
34459;SDS011;20704;51.260;22.558;2023-02-01T06:09:12;10.47;;;3.83;;
34459;SDS011;20704;51.260;22.558;2023-02-01T06:11:15;6.53;;;2.90;;
34459;SDS011;20704;51.260;22.558;2023-02-01T06:13:32;9.63;;;2.43;;
34459;SDS011;20704;51.260;22.558;2023-02-01T06:15:35;5.37;;;1.83;;
34459;SDS011;20704;51.260;22.558;2023-02-01T06:17:43;4.87;;;1.90;;
34459;SDS011;20704;51.260;22.558;2023-02-01T06:19:47;4.53;;;2.30;;
34459;SDS011;20704;51.260;22.558;2023-02-01T06:21:50;5.30;;;1.87;;
34459;SDS011;20704;51.260;22.558;2023-02-01T06:23:53;8.47;;;2.17;;
34459;SDS011;20704;51.260;22.558;2023-02-01T06:26:00;5.83;;;2.03;;
34459;SDS011;20704;51.260;22.558;2023-02-01T06:28:07;7.70;;;2.00;;
34459;SDS011;20704;51.260;22.558;2023-02-01T06:30:09;4.73;;;1.90;;
34459;SDS011;20704;51.260;22.558;2023-02-01T06:32:15;7.37;;;2.70;;
34459;SDS011;20704;51.260;22.558;2023-02-01T06:34:18;9.70;;;2.90;;
34459;SDS011;20704;51.260;22.558;2023-02-01T06:36:22;8.63;;;2.03;;
34459;SDS011;20704;51.260;22.558;2023-02-01T06:38:25;10.23;;;2.67;;
34459;SDS011;20704;51.260;22.558;2023-02-01T06:40:28;5.07;;;2.20;;
34459;SDS011;20704;51.260;22.558;2023-02-01T06:42:30;8.87;;;2.13;;
34459;SDS011;20704;51.260;22.558;2023-02-01T06:44:32;6.40;;;2.50;;
34459;SDS011;20704;51.260;22.558;2023-02-01T06:46:34;10.27;;;2.33;;
34459;SDS011;20704;51.260;22.558;2023-02-01T06:48:37;8.73;;;2.47;;
34459;SDS011;20704;51.260;22.558;2023-02-01T06:50:39;7.20;;;2.30;;
34459;SDS011;20704;51.260;22.558;2023-02-01T06:52:42;7.07;;;2.97;;
34459;SDS011;20704;51.260;22.558;2023-02-01T06:54:44;8.80;;;2.07;;
34459;SDS011;20704;51.260;22.558;2023-02-01T06:56:46;7.80;;;2.33;;
34459;SDS011;20704;51.260;22.558;2023-02-01T06:58:49;13.50;;;3.20;;
34459;SDS011;20704;51.260;22.558;2023-02-01T07:00:51;9.23;;;2.17;;
34459;SDS011;20704;51.260;22.558;2023-02-01T07:02:56;6.50;;;2.57;;
34459;SDS011;20704;51.260;22.558;2023-02-01T07:04:59;9.43;;;2.50;;
34459;SDS011;20704;51.260;22.558;2023-02-01T07:07:01;10.97;;;2.90;;
34459;SDS011;20704;51.260;22.558;2023-02-01T07:09:04;11.17;;;3.33;;
34459;SDS011;20704;51.260;22.558;2023-02-01T07:11:07;8.57;;;2.73;;
34459;SDS011;20704;51.260;22.558;2023-02-01T07:13:12;10.13;;;3.67;;
34459;SDS011;20704;51.260;22.558;2023-02-01T07:15:14;5.10;;;1.97;;
34459;SDS011;20704;51.260;22.558;2023-02-01T07:17:16;8.77;;;2.07;;
34459;SDS011;20704;51.260;22.558;2023-02-01T07:19:18;3.53;;;1.90;;
34459;SDS011;20704;51.260;22.558;2023-02-01T07:21:21;15.30;;;4.43;;
34459;SDS011;20704;51.260;22.558;2023-02-01T07:23:25;7.60;;;2.50;;
34459;SDS011;20704;51.260;22.558;2023-02-01T07:25:28;7.13;;;2.20;;
34459;SDS011;20704;51.260;22.558;2023-02-01T07:27:30;12.97;;;2.43;;
34459;SDS011;20704;51.260;22.558;2023-02-01T07:29:32;6.30;;;1.90;;
34459;SDS011;20704;51.260;22.558;2023-02-01T07:31:35;14.67;;;3.17;;
34459;SDS011;20704;51.260;22.558;2023-02-01T07:33:37;10.67;;;3.87;;
34459;SDS011;20704;51.260;22.558;2023-02-01T07:35:39;9.97;;;2.10;;
34459;SDS011;20704;51.260;22.558;2023-02-01T07:37:42;5.27;;;2.03;;
34459;SDS011;20704;51.260;22.558;2023-02-01T07:39:44;10.87;;;2.50;;
34459;SDS011;20704;51.260;22.558;2023-02-01T07:41:46;15.30;;;2.93;;
34459;SDS011;20704;51.260;22.558;2023-02-01T07:43:48;8.43;;;1.97;;
34459;SDS011;20704;51.260;22.558;2023-02-01T07:45:53;9.00;;;2.83;;
34459;SDS011;20704;51.260;22.558;2023-02-01T07:47:56;8.10;;;2.22;;
34459;SDS011;20704;51.260;22.558;2023-02-01T07:49:59;8.63;;;2.00;;
34459;SDS011;20704;51.260;22.558;2023-02-01T07:52:01;7.78;;;2.33;;
34459;SDS011;20704;51.260;22.558;2023-02-01T07:54:03;6.32;;;2.80;;
34459;SDS011;20704;51.260;22.558;2023-02-01T07:56:16;9.23;;;3.30;;
34459;SDS011;20704;51.260;22.558;2023-02-01T07:58:20;12.07;;;2.58;;
34459;SDS011;20704;51.260;22.558;2023-02-01T08:00:22;7.18;;;3.45;;
34459;SDS011;20704;51.260;22.558;2023-02-01T08:02:43;10.27;;;3.45;;
34459;SDS011;20704;51.260;22.558;2023-02-01T08:04:45;10.35;;;3.30;;
34459;SDS011;20704;51.260;22.558;2023-02-01T08:06:48;9.88;;;2.80;;
34459;SDS011;20704;51.260;22.558;2023-02-01T08:08:50;10.65;;;2.30;;
34459;SDS011;20704;51.260;22.558;2023-02-01T08:10:59;6.43;;;2.22;;
34459;SDS011;20704;51.260;22.558;2023-02-01T08:13:03;8.73;;;3.28;;
34459;SDS011;20704;51.260;22.558;2023-02-01T08:15:06;7.18;;;2.53;;
34459;SDS011;20704;51.260;22.558;2023-02-01T08:17:08;10.15;;;2.92;;
34459;SDS011;20704;51.260;22.558;2023-02-01T08:19:11;8.35;;;2.22;;
34459;SDS011;20704;51.260;22.558;2023-02-01T08:21:15;13.10;;;2.70;;
34459;SDS011;20704;51.260;22.558;2023-02-01T08:23:25;6.18;;;2.13;;
34459;SDS011;20704;51.260;22.558;2023-02-01T08:25:27;5.28;;;2.00;;
34459;SDS011;20704;51.260;22.558;2023-02-01T08:27:32;4.90;;;1.55;;
34459;SDS011;20704;51.260;22.558;2023-02-01T08:29:34;8.60;;;2.10;;
34459;SDS011;20704;51.260;22.558;2023-02-01T08:31:38;9.18;;;2.55;;
34459;SDS011;20704;51.260;22.558;2023-02-01T08:33:43;4.18;;;2.30;;
34459;SDS011;20704;51.260;22.558;2023-02-01T08:35:49;10.93;;;2.95;;
34459;SDS011;20704;51.260;22.558;2023-02-01T08:37:51;8.07;;;2.88;;
34459;SDS011;20704;51.260;22.558;2023-02-01T08:39:53;10.05;;;3.53;;
34459;SDS011;20704;51.260;22.558;2023-02-01T08:41:56;8.00;;;2.30;;
34459;SDS011;20704;51.260;22.558;2023-02-01T08:44:16;7.03;;;1.77;;
34459;SDS011;20704;51.260;22.558;2023-02-01T08:46:19;10.45;;;2.53;;
34459;SDS011;20704;51.260;22.558;2023-02-01T08:48:22;7.45;;;2.08;;
34459;SDS011;20704;51.260;22.558;2023-02-01T08:50:25;12.32;;;3.60;;
34459;SDS011;20704;51.260;22.558;2023-02-01T08:52:28;10.73;;;2.40;;
34459;SDS011;20704;51.260;22.558;2023-02-01T08:54:30;7.45;;;2.22;;
34459;SDS011;20704;51.260;22.558;2023-02-01T08:56:32;7.75;;;2.17;;
34459;SDS011;20704;51.260;22.558;2023-02-01T08:58:35;7.60;;;2.70;;
34459;SDS011;20704;51.260;22.558;2023-02-01T09:00:37;6.55;;;2.40;;
34459;SDS011;20704;51.260;22.558;2023-02-01T09:02:39;7.50;;;1.98;;
34459;SDS011;20704;51.260;22.558;2023-02-01T09:04:42;6.82;;;2.38;;
34459;SDS011;20704;51.260;22.558;2023-02-01T09:06:44;8.63;;;2.78;;
34459;SDS011;20704;51.260;22.558;2023-02-01T09:08:47;10.30;;;2.60;;
34459;SDS011;20704;51.260;22.558;2023-02-01T09:10:49;8.32;;;2.58;;
34459;SDS011;20704;51.260;22.558;2023-02-01T09:12:52;10.63;;;2.78;;
34459;SDS011;20704;51.260;22.558;2023-02-01T09:14:57;8.18;;;2.42;;
34459;SDS011;20704;51.260;22.558;2023-02-01T09:17:01;9.60;;;2.20;;
34459;SDS011;20704;51.260;22.558;2023-02-01T09:19:04;10.30;;;3.53;;
34459;SDS011;20704;51.260;22.558;2023-02-01T09:21:26;7.07;;;2.28;;
34459;SDS011;20704;51.260;22.558;2023-02-01T09:23:28;5.97;;;2.10;;
34459;SDS011;20704;51.260;22.558;2023-02-01T09:25:31;10.20;;;2.08;;
34459;SDS011;20704;51.260;22.558;2023-02-01T09:27:33;8.80;;;2.45;;
34459;SDS011;20704;51.260;22.558;2023-02-01T09:29:36;5.90;;;2.75;;
34459;SDS011;20704;51.260;22.558;2023-02-01T09:31:39;8.05;;;2.75;;
34459;SDS011;20704;51.260;22.558;2023-02-01T09:33:47;9.10;;;3.08;;
34459;SDS011;20704;51.260;22.558;2023-02-01T09:35:54;11.55;;;2.63;;
34459;SDS011;20704;51.260;22.558;2023-02-01T09:38:01;8.73;;;2.70;;
34459;SDS011;20704;51.260;22.558;2023-02-01T09:40:03;9.85;;;3.00;;
34459;SDS011;20704;51.260;22.558;2023-02-01T09:46:44;12.85;;;3.00;;
34459;SDS011;20704;51.260;22.558;2023-02-01T09:48:47;6.18;;;2.33;;
34459;SDS011;20704;51.260;22.558;2023-02-01T09:50:53;13.05;;;2.53;;
34459;SDS011;20704;51.260;22.558;2023-02-01T09:53:02;10.48;;;3.35;;
34459;SDS011;20704;51.260;22.558;2023-02-01T09:57:19;12.23;;;3.45;;
34459;SDS011;20704;51.260;22.558;2023-02-01T10:01:45;6.88;;;2.45;;
34459;SDS011;20704;51.260;22.558;2023-02-01T10:03:47;9.98;;;2.50;;
34459;SDS011;20704;51.260;22.558;2023-02-01T10:08:12;7.70;;;2.33;;
34459;SDS011;20704;51.260;22.558;2023-02-01T10:10:38;8.48;;;2.65;;
34459;SDS011;20704;51.260;22.558;2023-02-01T10:22:08;7.63;;;2.58;;
34459;SDS011;20704;51.260;22.558;2023-02-01T10:24:20;7.22;;;1.67;;
34459;SDS011;20704;51.260;22.558;2023-02-01T10:26:36;6.00;;;2.25;;
34459;SDS011;20704;51.260;22.558;2023-02-01T10:28:44;6.82;;;2.97;;
34459;SDS011;20704;51.260;22.558;2023-02-01T10:30:56;5.57;;;1.90;;
34459;SDS011;20704;51.260;22.558;2023-02-01T10:33:15;8.18;;;3.00;;
34459;SDS011;20704;51.260;22.558;2023-02-01T10:35:22;10.57;;;2.38;;
34459;SDS011;20704;51.260;22.558;2023-02-01T10:37:31;6.93;;;2.67;;
34459;SDS011;20704;51.260;22.558;2023-02-01T10:39:35;9.18;;;2.72;;
34459;SDS011;20704;51.260;22.558;2023-02-01T10:41:38;11.90;;;3.60;;
34459;SDS011;20704;51.260;22.558;2023-02-01T10:43:42;11.35;;;4.20;;
34459;SDS011;20704;51.260;22.558;2023-02-01T10:45:46;13.23;;;3.67;;
34459;SDS011;20704;51.260;22.558;2023-02-01T10:47:49;10.35;;;2.63;;
34459;SDS011;20704;51.260;22.558;2023-02-01T10:50:15;14.18;;;3.30;;
34459;SDS011;20704;51.260;22.558;2023-02-01T10:52:29;11.45;;;3.20;;
34459;SDS011;20704;51.260;22.558;2023-02-01T10:54:34;10.02;;;2.60;;
34459;SDS011;20704;51.260;22.558;2023-02-01T10:56:40;10.55;;;3.65;;
34459;SDS011;20704;51.260;22.558;2023-02-01T10:58:47;8.07;;;2.17;;
34459;SDS011;20704;51.260;22.558;2023-02-01T11:00:54;10.95;;;2.60;;
34459;SDS011;20704;51.260;22.558;2023-02-01T11:03:19;8.45;;;3.03;;
34459;SDS011;20704;51.260;22.558;2023-02-01T11:05:45;11.00;;;2.63;;
34459;SDS011;20704;51.260;22.558;2023-02-01T11:07:49;11.15;;;2.72;;
34459;SDS011;20704;51.260;22.558;2023-02-01T11:09:56;9.07;;;2.60;;
34459;SDS011;20704;51.260;22.558;2023-02-01T11:12:03;10.55;;;2.40;;
34459;SDS011;20704;51.260;22.558;2023-02-01T11:14:16;11.80;;;2.40;;
34459;SDS011;20704;51.260;22.558;2023-02-01T11:16:20;6.05;;;2.25;;
34459;SDS011;20704;51.260;22.558;2023-02-01T11:18:29;11.95;;;2.42;;
34459;SDS011;20704;51.260;22.558;2023-02-01T11:20:39;6.68;;;2.05;;
34459;SDS011;20704;51.260;22.558;2023-02-01T11:24:56;8.05;;;2.03;;
34459;SDS011;20704;51.260;22.558;2023-02-01T11:27:00;14.00;;;3.63;;
34459;SDS011;20704;51.260;22.558;2023-02-01T11:29:11;5.47;;;2.08;;
34459;SDS011;20704;51.260;22.558;2023-02-01T11:31:15;8.05;;;2.40;;
34459;SDS011;20704;51.260;22.558;2023-02-01T11:33:18;8.82;;;2.35;;
34459;SDS011;20704;51.260;22.558;2023-02-01T11:35:22;7.03;;;2.95;;
34459;SDS011;20704;51.260;22.558;2023-02-01T11:37:38;10.15;;;2.97;;
34459;SDS011;20704;51.260;22.558;2023-02-01T11:39:45;8.10;;;2.67;;
34459;SDS011;20704;51.260;22.558;2023-02-01T11:44:18;9.15;;;2.83;;
34459;SDS011;20704;51.260;22.558;2023-02-01T11:46:41;15.43;;;2.42;;
34459;SDS011;20704;51.260;22.558;2023-02-01T11:48:43;10.75;;;2.78;;
34459;SDS011;20704;51.260;22.558;2023-02-01T11:53:30;13.52;;;2.78;;
34459;SDS011;20704;51.260;22.558;2023-02-01T11:55:55;7.90;;;2.42;;
34459;SDS011;20704;51.260;22.558;2023-02-01T11:58:10;8.05;;;3.00;;
34459;SDS011;20704;51.260;22.558;2023-02-01T12:00:32;12.38;;;3.35;;
34459;SDS011;20704;51.260;22.558;2023-02-01T12:04:54;11.93;;;2.92;;
34459;SDS011;20704;51.260;22.558;2023-02-01T12:26:21;7.15;;;2.65;;
34459;SDS011;20704;51.260;22.558;2023-02-01T12:33:22;7.85;;;2.70;;
34459;SDS011;20704;51.260;22.558;2023-02-01T12:38:01;12.18;;;2.83;;
34459;SDS011;20704;51.260;22.558;2023-02-01T12:44:28;9.60;;;3.00;;
34459;SDS011;20704;51.260;22.558;2023-02-01T12:46:33;12.00;;;3.42;;
34459;SDS011;20704;51.260;22.558;2023-02-01T12:49:03;10.35;;;2.47;;
34459;SDS011;20704;51.260;22.558;2023-02-01T12:51:29;5.55;;;2.80;;
34459;SDS011;20704;51.260;22.558;2023-02-01T12:56:06;11.55;;;3.15;;
34459;SDS011;20704;51.260;22.558;2023-02-01T13:03:12;10.63;;;3.53;;
34459;SDS011;20704;51.260;22.558;2023-02-01T13:05:31;8.45;;;3.50;;
34459;SDS011;20704;51.260;22.558;2023-02-01T13:07:48;18.13;;;3.75;;
34459;SDS011;20704;51.260;22.558;2023-02-01T13:10:03;14.57;;;3.60;;
34459;SDS011;20704;51.260;22.558;2023-02-01T13:12:19;8.70;;;3.05;;
34459;SDS011;20704;51.260;22.558;2023-02-01T13:14:44;9.13;;;2.92;;
34459;SDS011;20704;51.260;22.558;2023-02-01T13:17:10;9.93;;;3.23;;
34459;SDS011;20704;51.260;22.558;2023-02-01T13:21:30;10.95;;;3.20;;
34459;SDS011;20704;51.260;22.558;2023-02-01T13:23:37;10.00;;;2.80;;
34459;SDS011;20704;51.260;22.558;2023-02-01T13:25:47;13.32;;;4.05;;
34459;SDS011;20704;51.260;22.558;2023-02-01T13:27:56;9.93;;;2.80;;
34459;SDS011;20704;51.260;22.558;2023-02-01T13:41:41;7.70;;;2.45;;
34459;SDS011;20704;51.260;22.558;2023-02-01T13:44:03;10.57;;;3.17;;
34459;SDS011;20704;51.260;22.558;2023-02-01T13:46:12;10.90;;;4.20;;
34459;SDS011;20704;51.260;22.558;2023-02-01T13:48:23;11.82;;;4.28;;
34459;SDS011;20704;51.260;22.558;2023-02-01T13:50:41;11.98;;;5.25;;
34459;SDS011;20704;51.260;22.558;2023-02-01T13:52:43;11.23;;;4.00;;
34459;SDS011;20704;51.260;22.558;2023-02-01T13:55:02;9.18;;;4.22;;
34459;SDS011;20704;51.260;22.558;2023-02-01T14:01:41;9.02;;;3.33;;
34459;SDS011;20704;51.260;22.558;2023-02-01T14:03:44;9.30;;;4.18;;
34459;SDS011;20704;51.260;22.558;2023-02-01T14:06:14;9.15;;;3.58;;
34459;SDS011;20704;51.260;22.558;2023-02-01T14:08:40;10.82;;;4.38;;
34459;SDS011;20704;51.260;22.558;2023-02-01T14:10:54;8.27;;;3.15;;
34459;SDS011;20704;51.260;22.558;2023-02-01T14:13:04;12.20;;;3.90;;
34459;SDS011;20704;51.260;22.558;2023-02-01T14:15:25;9.35;;;3.75;;
34459;SDS011;20704;51.260;22.558;2023-02-01T14:17:30;11.18;;;4.95;;
34459;SDS011;20704;51.260;22.558;2023-02-01T14:19:36;9.60;;;3.15;;
34459;SDS011;20704;51.260;22.558;2023-02-01T14:21:58;10.32;;;3.72;;
34459;SDS011;20704;51.260;22.558;2023-02-01T14:26:15;13.75;;;4.30;;
34459;SDS011;20704;51.260;22.558;2023-02-01T14:28:24;8.45;;;3.92;;
34459;SDS011;20704;51.260;22.558;2023-02-01T14:30:28;11.05;;;3.45;;